METAR Data
IDs: Format: Raw Decoded Include TAF

Data at: 1957 UTC 17 Nov 2019

KAIZ 161856Z AUTO VRB04KT 10SM CLR 12/M02 A3022 RMK AO2 SLP236 T01171022
KAIZ 161756Z AUTO 19006KT 10SM CLR 11/M02 A3025 RMK AO2 SLP249 T01061022 10106 21044 58024
KAIZ 161656Z AUTO 20005KT 10SM CLR 09/M03 A3029 RMK AO2 SLP263 T00891033
KAIZ 161556Z AUTO 15006KT 10SM CLR 06/M04 A3031 RMK AO2 SLP270 T00611044
KAIZ 161456Z AUTO 16004KT 10SM CLR 02/M05 A3032 RMK AO2 SLP275 T00221050 53002 FZRANO
KAIZ 161356Z AUTO 16003KT 10SM CLR M01/M06 A3032 RMK AO2 SLP276 T10111056 FZRANO
KAIZ 161256Z AUTO 12003KT 10SM CLR M03/M07 A3032 RMK AO2 SLP276 T10281067 FZRANO
KAIZ 161156Z AUTO 12004KT 10SM CLR M04/M07 A3032 RMK AO2 SLP275 T10441072 11028 21050 56001 FZRANO
KAIZ 161056Z AUTO 13003KT 10SM CLR M04/M07 A3032 RMK AO2 SLP274 T10441072 FZRANO
KAIZ 160956Z AUTO 13003KT 10SM CLR M04/M07 A3031 RMK AO2 SLP269 T10441072 FZRANO
KAIZ 160856Z AUTO 00000KT 10SM CLR M05/M07 A3032 RMK AO2 SLP274 T10501072 56006 FZRANO